Time;durP1;ratioP1;P1;durP2;ratioP2;P2;SDS_P1;SDS_P2;PMS_P1;PMS_P2;Temp;Humidity;BMP_temperature;BMP_pressure;BME280_temperature;BME280_humidity;BME280_pressure;Samples;Min_cycle;Max_cycle;Signal;HPM_P1;HPM_P2
2023/11/28 00:02:25;;;;;;;2.87;1.10;;;4.90;15.40;;;;;;5014725;28;20172;-69
2023/11/28 00:04:51;;;;;;;1.67;0.60;;;4.80;15.80;;;;;;5012988;28;20806;-69
2023/11/28 00:07:16;;;;;;;1.50;0.70;;;4.80;15.80;;;;;;5014502;28;20750;-70
2023/11/28 00:09:42;;;;;;;2.00;0.63;;;4.80;16.60;;;;;;5013666;28;20219;-70
2023/11/28 00:12:08;;;;;;;2.00;0.60;;;4.80;17.20;;;;;;5014622;28;20194;-70
2023/11/28 00:14:33;;;;;;;2.37;0.70;;;4.90;17.30;;;;;;5012898;28;20227;-70
2023/11/28 00:16:59;;;;;;;1.57;0.60;;;4.90;16.40;;;;;;5014055;28;20450;-70
2023/11/28 00:19:25;;;;;;;1.53;0.50;;;4.90;17.00;;;;;;5014066;28;20176;-70
2023/11/28 00:21:50;;;;;;;1.50;0.60;;;4.90;16.60;;;;;;5012637;28;20180;-70
2023/11/28 00:24:16;;;;;;;1.40;0.40;;;4.90;17.10;;;;;;5013638;28;20191;-70
2023/11/28 00:26:41;;;;;;;1.40;0.40;;;5.00;16.90;;;;;;5012641;28;20211;-70
2023/11/28 00:29:08;;;;;;;1.40;0.40;;;5.00;17.30;;;;;;5013779;28;20179;-70
2023/11/28 00:31:33;;;;;;;1.60;0.50;;;5.10;16.40;;;;;;5013577;28;20179;-69
2023/11/28 00:33:59;;;;;;;1.40;0.40;;;5.00;16.60;;;;;;5012235;28;20963;-70
2023/11/28 00:36:25;;;;;;;1.40;0.40;;;5.10;17.10;;;;;;5013258;28;20415;-69
2023/11/28 00:38:51;;;;;;;1.50;0.50;;;5.10;17.40;;;;;;5013483;28;20183;-70
2023/11/28 00:41:17;;;;;;;1.37;0.47;;;5.10;17.20;;;;;;5013532;28;20271;-69
2023/11/28 00:43:43;;;;;;;1.70;0.80;;;5.10;18.00;;;;;;5012149;28;20934;-69
2023/11/28 00:46:09;;;;;;;1.70;0.60;;;5.10;17.10;;;;;;5011894;28;20258;-70
2023/11/28 00:48:35;;;;;;;2.10;0.57;;;5.20;16.50;;;;;;5013219;28;20446;-69
2023/11/28 00:51:01;;;;;;;1.87;0.63;;;5.10;16.60;;;;;;5013217;28;20918;-69
2023/11/28 00:53:27;;;;;;;1.60;0.50;;;5.10;16.50;;;;;;5013019;28;20204;-69
2023/11/28 00:55:53;;;;;;;1.50;0.50;;;5.10;16.00;;;;;;5011861;28;20563;-68
2023/11/28 00:58:18;;;;;;;1.40;0.50;;;5.10;16.70;;;;;;5013118;28;20417;-69
2023/11/28 01:00:44;;;;;;;1.33;0.40;;;5.10;16.60;;;;;;5013032;28;20411;-69
2023/11/28 01:03:10;;;;;;;1.90;0.80;;;5.10;16.70;;;;;;5013243;28;20191;-69
2023/11/28 01:05:35;;;;;;;1.40;0.40;;;5.10;15.00;;;;;;5011016;28;20446;-69
2023/11/28 01:08:04;;;;;;;1.40;0.40;;;5.10;15.50;;;;;;5013008;28;20219;-70
2023/11/28 01:10:30;;;;;;;1.50;0.40;;;5.10;15.10;;;;;;5012919;28;20550;-70
2023/11/28 01:12:55;;;;;;;1.57;0.50;;;5.10;15.10;;;;;;5012850;28;20468;-70
2023/11/28 01:15:21;;;;;;;1.57;0.60;;;5.10;14.50;;;;;;5012489;28;20200;-70
2023/11/28 01:17:46;;;;;;;1.50;0.40;;;5.10;15.30;;;;;;5012827;28;20609;-69
2023/11/28 01:20:12;;;;;;;2.80;0.40;;;5.10;13.80;;;;;;5012865;28;20172;-69
2023/11/28 01:22:38;;;;;;;1.40;0.50;;;5.00;14.50;;;;;;5012720;28;20248;-70
2023/11/28 01:25:04;;;;;;;1.40;0.50;;;5.10;15.00;;;;;;5011354;28;20200;-69
2023/11/28 01:27:30;;;;;;;1.57;0.50;;;5.00;14.70;;;;;;5011481;28;20183;-69
2023/11/28 01:29:55;;;;;;;1.50;0.40;;;5.10;15.10;;;;;;5011277;28;20429;-69
2023/11/28 01:32:22;;;;;;;1.60;0.53;;;5.10;14.50;;;;;;5012661;28;20568;-69
2023/11/28 01:34:47;;;;;;;1.50;0.50;;;5.10;14.60;;;;;;5012503;28;20192;-69
2023/11/28 01:37:13;;;;;;;1.37;0.40;;;5.10;13.80;;;;;;5012811;28;20424;-69
2023/11/28 01:39:39;;;;;;;1.40;0.50;;;5.10;15.00;;;;;;5012836;28;20172;-69
2023/11/28 01:42:05;;;;;;;2.23;0.73;;;5.10;15.00;;;;;;5012954;28;20945;-70
2023/11/28 01:44:31;;;;;;;1.40;0.50;;;5.20;14.10;;;;;;5012025;28;20686;-69
2023/11/28 01:46:56;;;;;;;1.97;0.47;;;5.20;14.80;;;;;;5012685;28;20415;-69
2023/11/28 01:49:22;;;;;;;1.50;0.50;;;5.30;14.90;;;;;;5011517;28;20632;-69
2023/11/28 01:51:48;;;;;;;1.80;0.53;;;5.30;14.90;;;;;;5013131;28;20447;-68
2023/11/28 01:54:14;;;;;;;1.53;0.43;;;5.40;13.70;;;;;;5013198;28;20211;-69
2023/11/28 01:56:41;;;;;;;1.60;0.50;;;5.30;13.10;;;;;;5013039;28;20207;-69
2023/11/28 01:59:07;;;;;;;1.60;0.50;;;5.30;13.80;;;;;;5012934;28;20414;-69
2023/11/28 02:01:33;;;;;;;1.70;0.50;;;5.30;13.60;;;;;;5012532;28;20415;-68
2023/11/28 02:03:59;;;;;;;1.63;0.50;;;5.30;14.00;;;;;;5012478;28;20937;-69
2023/11/28 02:06:25;;;;;;;2.00;0.60;;;5.40;13.40;;;;;;5011021;28;20430;-69
2023/11/28 02:08:51;;;;;;;1.80;0.63;;;5.40;13.00;;;;;;5011649;28;20194;-69
2023/11/28 02:11:17;;;;;;;1.50;0.50;;;5.40;12.90;;;;;;5011500;28;20590;-70
2023/11/28 02:13:43;;;;;;;1.60;0.50;;;5.50;13.70;;;;;;5012713;28;20200;-70
2023/11/28 02:16:16;;;;;;;1.40;0.40;;;5.50;13.10;;;;;;5013649;28;20445;-70
2023/11/28 02:18:42;;;;;;;1.40;0.40;;;5.50;13.20;;;;;;5016665;28;20184;-70
2023/11/28 02:21:10;;;;;;;1.50;0.57;;;5.50;12.40;;;;;;5015956;28;20509;-70
2023/11/28 02:23:36;;;;;;;1.47;0.40;;;5.50;13.40;;;;;;5016410;28;20430;-70
2023/11/28 02:26:15;;;;;;;1.50;0.50;;;5.50;12.50;;;;;;5016568;28;20415;-69
2023/11/28 02:28:41;;;;;;;1.50;0.40;;;5.50;12.10;;;;;;5016961;28;20414;-69
2023/11/28 02:31:06;;;;;;;1.40;0.40;;;5.60;12.00;;;;;;5016987;28;20822;-70
2023/11/28 02:33:32;;;;;;;1.43;0.50;;;5.60;12.00;;;;;;5015683;28;20201;-70
2023/11/28 02:35:58;;;;;;;2.37;0.50;;;5.60;12.00;;;;;;5015650;28;20172;-70
2023/11/28 02:38:23;;;;;;;1.60;0.50;;;5.60;12.00;;;;;;5015778;28;20407;-70
2023/11/28 02:40:49;;;;;;;1.67;0.60;;;5.70;11.30;;;;;;5015603;28;20557;-70
2023/11/28 02:43:16;;;;;;;2.00;0.87;;;5.70;11.80;;;;;;5015698;28;20640;-70
2023/11/28 02:45:44;;;;;;;1.40;0.40;;;5.70;11.20;;;;;;5015193;28;20218;-70
2023/11/28 02:48:10;;;;;;;1.40;0.40;;;5.70;11.10;;;;;;5015475;28;20554;-70
2023/11/28 02:50:37;;;;;;;1.50;0.50;;;5.80;12.10;;;;;;5015342;28;20505;-70
2023/11/28 02:53:03;;;;;;;1.40;0.40;;;5.70;10.70;;;;;;5015430;28;20211;-70
2023/11/28 02:55:29;;;;;;;3.47;0.57;;;5.80;10.20;;;;;;5015182;28;20431;-70
2023/11/28 02:57:54;;;;;;;1.50;0.50;;;5.80;9.90;;;;;;5015469;28;20561;-70
2023/11/28 03:00:20;;;;;;;1.60;0.50;;;5.90;10.70;;;;;;5015114;28;20657;-70
2023/11/28 03:02:46;;;;;;;1.40;0.40;;;5.90;9.70;;;;;;5014959;28;20262;-70
2023/11/28 03:05:12;;;;;;;1.60;0.50;;;5.90;9.90;;;;;;5014798;28;20427;-69
2023/11/28 03:07:38;;;;;;;1.50;0.50;;;6.00;10.90;;;;;;5015036;28;20211;-71
2023/11/28 03:10:04;;;;;;;1.77;0.47;;;6.00;10.30;;;;;;5014820;28;20972;-70
2023/11/28 03:12:30;;;;;;;1.40;0.40;;;6.00;11.10;;;;;;5014864;28;20606;-69
2023/11/28 03:14:55;;;;;;;1.40;0.40;;;6.00;11.30;;;;;;5014622;28;20435;-69
2023/11/28 03:17:21;;;;;;;1.50;0.40;;;6.10;10.60;;;;;;5013414;28;20183;-69
2023/11/28 03:19:46;;;;;;;1.40;0.40;;;6.20;10.70;;;;;;5014736;28;20256;-69
2023/11/28 03:22:12;;;;;;;1.40;0.40;;;6.20;11.60;;;;;;5014617;28;20176;-69
2023/11/28 03:24:37;;;;;;;1.50;0.40;;;6.20;11.10;;;;;;5014288;28;20200;-69
2023/11/28 03:27:03;;;;;;;1.47;0.47;;;6.10;12.30;;;;;;5014092;28;20568;-69
2023/11/28 03:29:28;;;;;;;1.50;0.60;;;6.10;12.30;;;;;;5014504;28;20238;-70
2023/11/28 03:31:54;;;;;;;1.47;0.50;;;6.10;13.00;;;;;;5014429;28;20258;-69
2023/11/28 03:34:19;;;;;;;1.50;0.40;;;6.10;13.50;;;;;;5014115;28;20299;-69
2023/11/28 03:36:45;;;;;;;2.17;0.40;;;6.10;14.20;;;;;;5014365;28;20169;-69
2023/11/28 03:39:10;;;;;;;1.40;0.40;;;6.10;13.90;;;;;;5014309;28;20180;-69
2023/11/28 03:41:36;;;;;;;1.43;0.60;;;6.00;14.10;;;;;;5014243;28;20640;-69
2023/11/28 03:44:02;;;;;;;1.40;0.43;;;6.10;14.80;;;;;;5036142;22;20211;-70
2023/11/28 03:46:28;;;;;;;1.40;0.40;;;6.10;15.40;;;;;;5014146;28;20502;-70
2023/11/28 03:48:53;;;;;;;1.60;0.50;;;6.10;14.10;;;;;;5014134;28;20195;-70
2023/11/28 03:51:19;;;;;;;1.43;0.50;;;6.10;14.70;;;;;;5014225;28;20173;-70
2023/11/28 03:53:45;;;;;;;1.40;0.40;;;6.00;15.30;;;;;;5013858;28;20246;-71
2023/11/28 03:56:11;;;;;;;1.57;0.53;;;5.90;16.00;;;;;;5029012;28;20436;-72
2023/11/28 03:58:37;;;;;;;1.40;0.40;;;6.00;16.00;;;;;;5012573;28;20180;-72
2023/11/28 04:01:04;;;;;;;1.50;0.60;;;5.90;16.00;;;;;;5014027;28;20805;-72
2023/11/28 04:03:30;;;;;;;1.50;0.50;;;5.90;15.50;;;;;;5013898;28;21012;-72
2023/11/28 04:05:56;;;;;;;1.37;0.40;;;5.90;15.70;;;;;;5028729;28;20554;-72
2023/11/28 04:08:22;;;;;;;1.40;0.40;;;5.90;14.80;;;;;;5028947;28;20185;-71
2023/11/28 04:10:47;;;;;;;1.40;0.40;;;5.90;14.10;;;;;;5013666;28;20196;-71
2023/11/28 04:13:13;;;;;;;1.40;0.40;;;5.90;14.40;;;;;;5028804;28;20215;-72
2023/11/28 04:15:42;;;;;;;1.43;0.50;;;6.00;14.20;;;;;;5012050;28;20624;-71
2023/11/28 04:18:09;;;;;;;1.60;0.60;;;5.90;12.70;;;;;;5014000;28;20538;-71
2023/11/28 04:20:36;;;;;;;1.50;0.60;;;5.90;12.90;;;;;;5013441;28;20419;-71
2023/11/28 04:23:02;;;;;;;1.40;0.40;;;5.90;13.10;;;;;;5013279;28;20418;-71
2023/11/28 04:25:27;;;;;;;1.80;0.50;;;5.90;13.20;;;;;;5013492;28;20449;-71
2023/11/28 04:27:53;;;;;;;1.50;0.50;;;5.90;13.40;;;;;;5013635;28;20419;-72
2023/11/28 04:30:18;;;;;;;1.40;0.40;;;6.00;12.90;;;;;;5013419;28;20189;-72
2023/11/28 04:32:44;;;;;;;1.50;0.50;;;6.00;13.30;;;;;;5013473;28;20202;-72
2023/11/28 04:35:10;;;;;;;1.30;0.40;;;5.90;13.40;;;;;;5013060;28;20207;-72
2023/11/28 04:37:35;;;;;;;1.40;0.40;;;5.90;13.90;;;;;;5013129;28;20346;-72
2023/11/28 04:40:04;;;;;;;1.40;0.40;;;5.90;14.50;;;;;;5012178;28;20574;-72
2023/11/28 04:42:29;;;;;;;11.20;0.90;;;5.90;15.00;;;;;;5013184;28;20184;-72
2023/11/28 04:44:55;;;;;;;1.40;0.50;;;5.90;14.90;;;;;;5012709;28;20601;-72
2023/11/28 04:47:20;;;;;;;1.50;0.50;;;5.80;15.60;;;;;;5013097;28;20647;-72
2023/11/28 04:49:46;;;;;;;1.40;0.40;;;5.90;16.50;;;;;;5012949;28;20263;-71
2023/11/28 04:52:12;;;;;;;1.60;0.50;;;5.80;16.40;;;;;;5027968;28;20554;-71
2023/11/28 04:54:37;;;;;;;1.43;0.50;;;5.80;16.40;;;;;;5012685;28;20219;-72
2023/11/28 04:57:04;;;;;;;1.70;0.50;;;5.70;17.20;;;;;;5012962;28;20233;-72
2023/11/28 04:59:30;;;;;;;1.50;0.60;;;5.70;18.40;;;;;;5013105;28;20655;-71
2023/11/28 05:01:56;;;;;;;1.40;0.50;;;5.70;18.80;;;;;;5012694;28;20423;-71
2023/11/28 05:04:22;;;;;;;1.40;0.50;;;5.70;18.40;;;;;;5012563;28;20442;-70
2023/11/28 05:06:47;;;;;;;1.43;0.60;;;5.60;19.10;;;;;;5012735;28;20459;-71
2023/11/28 05:09:17;;;;;;;1.40;0.50;;;5.70;19.30;;;;;;5012709;28;20234;-73
2023/11/28 05:11:43;;;;;;;1.50;0.50;;;5.60;19.40;;;;;;5012657;28;20179;-71
2023/11/28 05:14:08;;;;;;;1.57;0.53;;;5.60;19.80;;;;;;5012409;28;20549;-71
2023/11/28 05:16:34;;;;;;;1.50;0.50;;;5.70;20.60;;;;;;5010654;28;20455;-70
2023/11/28 05:19:00;;;;;;;2.00;0.60;;;5.70;20.10;;;;;;5012537;28;20184;-71
2023/11/28 05:21:25;;;;;;;1.50;0.67;;;5.60;20.50;;;;;;5012610;28;20189;-71
2023/11/28 05:23:51;;;;;;;1.90;0.80;;;5.60;20.50;;;;;;5012380;28;20643;-72
2023/11/28 05:26:16;;;;;;;1.83;0.80;;;5.60;21.10;;;;;;5012701;28;20553;-71
2023/11/28 05:28:44;;;;;;;1.60;0.60;;;5.60;20.50;;;;;;5012305;28;20651;-72
2023/11/28 05:31:15;;;;;;;1.40;0.50;;;5.60;21.30;;;;;;5012426;28;20191;-72
2023/11/28 05:33:41;;;;;;;1.50;0.47;;;5.60;22.10;;;;;;5012180;28;20462;-72
2023/11/28 05:36:08;;;;;;;1.93;0.60;;;5.60;21.10;;;;;;5012021;28;20936;-71
2023/11/28 05:38:33;;;;;;;1.50;0.60;;;5.60;21.30;;;;;;5027524;28;20183;-72
2023/11/28 05:40:59;;;;;;;1.83;0.60;;;5.60;20.50;;;;;;5027385;28;20427;-72
2023/11/28 05:43:28;;;;;;;1.40;0.50;;;5.50;21.10;;;;;;5012184;28;20260;-71
2023/11/28 05:45:54;;;;;;;2.57;0.87;;;5.60;21.00;;;;;;5011788;28;20457;-72
2023/11/28 05:48:19;;;;;;;1.83;0.60;;;5.50;20.50;;;;;;5027307;28;20817;-73
2023/11/28 05:50:45;;;;;;;2.90;0.80;;;5.50;21.30;;;;;;5011728;28;20699;-74
2023/11/28 05:53:11;;;;;;;2.17;0.67;;;5.60;20.40;;;;;;5011514;28;20219;-72
2023/11/28 05:55:36;;;;;;;1.40;0.40;;;5.50;19.00;;;;;;5011865;28;20200;-71
2023/11/28 05:58:02;;;;;;;1.40;0.53;;;5.50;18.90;;;;;;5011997;28;20202;-72
2023/11/28 06:00:27;;;;;;;1.40;0.50;;;5.40;20.10;;;;;;5011967;28;20176;-72
2023/11/28 06:02:53;;;;;;;1.50;0.50;;;5.50;19.10;;;;;;5011761;28;20558;-71
2023/11/28 06:05:19;;;;;;;1.40;0.50;;;5.50;18.70;;;;;;5011713;28;20635;-72
2023/11/28 06:07:44;;;;;;;1.60;0.53;;;5.50;18.30;;;;;;5011944;28;20334;-72
2023/11/28 06:10:10;;;;;;;1.50;0.57;;;5.50;18.50;;;;;;5011788;28;21000;-72
2023/11/28 06:12:37;;;;;;;1.60;0.60;;;5.50;17.00;;;;;;5011822;28;20290;-70
2023/11/28 06:15:04;;;;;;;2.07;0.80;;;5.50;16.60;;;;;;5011659;28;20218;-70
2023/11/28 06:17:29;;;;;;;1.80;0.70;;;5.50;16.20;;;;;;5010953;28;20414;-69
2023/11/28 06:19:55;;;;;;;1.40;0.50;;;5.50;16.50;;;;;;5010487;28;20906;-69
2023/11/28 06:22:20;;;;;;;1.60;0.80;;;5.50;16.20;;;;;;5010441;28;20180;-70
2023/11/28 06:24:46;;;;;;;1.60;0.57;;;5.50;17.40;;;;;;5011840;28;20196;-70
2023/11/28 06:27:12;;;;;;;1.73;0.60;;;5.40;16.90;;;;;;5011926;28;20183;-70
2023/11/28 06:29:38;;;;;;;1.93;0.67;;;5.40;16.90;;;;;;5011723;28;20179;-70
2023/11/28 06:32:04;;;;;;;1.80;0.70;;;5.30;17.90;;;;;;5012104;28;20427;-69
2023/11/28 06:34:30;;;;;;;1.50;0.60;;;5.20;18.10;;;;;;5010518;28;20762;-69
2023/11/28 06:36:55;;;;;;;2.30;1.00;;;5.20;18.60;;;;;;5010685;28;20437;-69
2023/11/28 06:39:23;;;;;;;2.20;1.00;;;5.20;19.30;;;;;;5011832;28;20188;-70
2023/11/28 06:41:49;;;;;;;1.70;1.00;;;5.10;19.90;;;;;;5010742;28;20560;-70
2023/11/28 06:44:15;;;;;;;2.33;1.10;;;5.10;20.10;;;;;;5011203;28;20465;-70
2023/11/28 06:46:41;;;;;;;2.50;1.23;;;5.00;19.50;;;;;;5009717;28;20493;-69
2023/11/28 06:49:07;;;;;;;1.80;0.90;;;5.00;19.00;;;;;;5010750;28;20172;-71
2023/11/28 06:51:32;;;;;;;1.80;1.00;;;5.00;19.50;;;;;;5012041;28;20453;-71
2023/11/28 06:54:01;;;;;;;2.90;1.40;;;5.00;18.90;;;;;;5011565;28;20204;-69
2023/11/28 06:56:27;;;;;;;2.80;1.40;;;5.00;18.90;;;;;;5010153;28;20528;-71
2023/11/28 06:58:52;;;;;;;2.50;1.40;;;4.90;18.50;;;;;;5011628;28;20421;-72
2023/11/28 07:01:18;;;;;;;1.90;1.07;;;4.90;18.80;;;;;;5011409;28;20180;-71
2023/11/28 07:03:44;;;;;;;5.20;1.03;;;4.90;18.00;;;;;;5014187;28;20195;-68
2023/11/28 07:06:10;;;;;;;2.00;0.93;;;4.80;18.30;;;;;;5013535;28;20710;-72
2023/11/28 07:08:36;;;;;;;2.30;0.80;;;4.80;17.70;;;;;;5015197;28;20180;-71
2023/11/28 07:11:02;;;;;;;2.37;0.90;;;4.70;15.90;;;;;;5015140;28;20421;-72
2023/11/28 07:13:27;;;;;;;2.40;1.53;;;4.70;18.10;;;;;;5013782;28;20204;-72
2023/11/28 07:15:53;;;;;;;3.93;1.17;;;4.60;18.20;;;;;;5014423;28;20431;-71
2023/11/28 07:18:20;;;;;;;1.53;0.63;;;4.60;18.80;;;;;;5014580;28;20529;-70
2023/11/28 07:20:49;;;;;;;4.33;0.97;;;4.60;18.40;;;;;;5014899;28;20167;-71
2023/11/28 07:23:16;;;;;;;2.23;1.33;;;4.50;17.70;;;;;;5014890;28;20437;-72
2023/11/28 07:25:43;;;;;;;2.53;1.13;;;4.50;18.50;;;;;;5014349;28;20520;-71
2023/11/28 07:28:09;;;;;;;1.70;0.80;;;4.40;18.00;;;;;;5014666;28;20488;-72
2023/11/28 07:30:34;;;;;;;2.10;0.77;;;4.30;18.80;;;;;;5014811;28;20426;-71
2023/11/28 07:33:00;;;;;;;1.90;0.90;;;4.30;19.40;;;;;;5013456;28;20972;-71
2023/11/28 07:35:26;;;;;;;2.00;1.30;;;4.30;19.70;;;;;;5014389;28;20195;-72
2023/11/28 07:37:51;;;;;;;1.97;0.77;;;4.20;19.60;;;;;;5014645;28;20314;-72
2023/11/28 07:40:17;;;;;;;1.90;1.10;;;4.20;20.80;;;;;;5014350;28;20546;-72
2023/11/28 07:42:43;;;;;;;5.10;1.10;;;4.20;21.40;;;;;;5016420;28;20631;-71
2023/11/28 07:45:08;;;;;;;1.97;1.20;;;4.20;23.30;;;;;;5014028;28;20294;-73
2023/11/28 07:47:34;;;;;;;2.03;1.10;;;4.20;23.60;;;;;;5013354;28;20531;-72
2023/11/28 07:49:59;;;;;;;5.73;1.30;;;4.10;24.30;;;;;;5014313;28;20421;-72
2023/11/28 07:52:25;;;;;;;3.00;1.30;;;4.00;23.20;;;;;;5012951;28;20216;-72
2023/11/28 07:54:51;;;;;;;2.27;0.80;;;4.00;23.90;;;;;;5010601;28;20202;-71
2023/11/28 07:57:16;;;;;;;1.83;0.90;;;3.90;22.50;;;;;;5009431;28;20187;-72
2023/11/28 07:59:46;;;;;;;2.90;1.57;;;3.80;23.50;;;;;;5009949;28;20518;-72
2023/11/28 08:02:14;;;;;;;2.13;1.03;;;3.80;24.50;;;;;;5008585;28;20194;-72
2023/11/28 08:04:40;;;;;;;1.92;1.17;;;3.70;25.30;;;;;;5008655;28;20449;-70
2023/11/28 08:07:06;;;;;;;2.00;0.63;;;3.60;25.20;;;;;;5010368;28;20187;-72
2023/11/28 08:09:31;;;;;;;1.83;0.90;;;3.50;23.60;;;;;;5008200;28;20541;-71
2023/11/28 08:11:57;;;;;;;2.93;0.60;;;3.50;24.60;;;;;;5010972;28;20235;-72
2023/11/28 08:14:22;;;;;;;1.93;1.07;;;3.50;24.40;;;;;;5013318;28;20216;-73
2023/11/28 08:16:48;;;;;;;1.47;0.60;;;3.30;21.40;;;;;;5014315;28;20182;-72
2023/11/28 08:19:14;;;;;;;1.50;0.60;;;3.20;20.80;;;;;;5007411;28;20183;-72
2023/11/28 08:21:39;;;;;;;2.57;1.00;;;3.10;21.50;;;;;;5012919;28;20187;-72
2023/11/28 08:24:08;;;;;;;1.60;0.67;;;3.10;21.30;;;;;;5012118;28;20190;-70
2023/11/28 08:26:34;;;;;;;1.70;0.80;;;3.00;20.00;;;;;;5009021;28;20226;-72
2023/11/28 08:28:59;;;;;;;1.50;0.60;;;3.10;20.80;;;;;;5014514;28;20222;-71
2023/11/28 08:31:25;;;;;;;3.03;0.90;;;3.00;17.90;;;;;;5025133;28;20674;-72
2023/11/28 08:33:51;;;;;;;1.60;0.70;;;3.00;18.90;;;;;;5017946;28;20293;-70
2023/11/28 08:36:17;;;;;;;2.50;0.90;;;3.00;20.20;;;;;;5016605;28;20191;-70
2023/11/28 08:38:43;;;;;;;2.00;0.77;;;3.00;20.30;;;;;;5004682;28;20433;-70
2023/11/28 08:41:10;;;;;;;1.90;0.80;;;3.00;21.50;;;;;;5009470;28;20652;-69
2023/11/28 08:43:36;;;;;;;1.60;0.63;;;2.90;19.00;;;;;;5009173;28;20188;-69
2023/11/28 08:46:02;;;;;;;2.25;0.95;;;2.80;16.80;;;;;;5008701;28;20573;-69
2023/11/28 08:48:27;;;;;;;1.80;0.73;;;2.70;17.30;;;;;;5009549;28;20186;-67
2023/11/28 08:50:53;;;;;;;1.90;0.80;;;2.80;18.70;;;;;;5007231;28;20284;-69
2023/11/28 08:53:18;;;;;;;7.50;1.80;;;2.80;18.70;;;;;;5008441;28;20211;-69
2023/11/28 08:55:44;;;;;;;1.80;0.73;;;2.80;17.70;;;;;;5009240;28;20229;-71
2023/11/28 08:58:11;;;;;;;2.03;1.27;;;2.80;17.20;;;;;;5008789;28;20186;-68
2023/11/28 09:00:37;;;;;;;1.80;0.68;;;2.80;17.40;;;;;;5007226;28;20282;-68
2023/11/28 09:03:03;;;;;;;2.20;1.53;;;2.70;16.50;;;;;;5010103;28;20270;-70
2023/11/28 09:05:28;;;;;;;2.00;0.80;;;2.70;16.90;;;;;;5012604;28;20574;-70
2023/11/28 09:07:57;;;;;;;2.10;1.17;;;2.70;18.10;;;;;;5011530;28;20186;-68
2023/11/28 09:10:23;;;;;;;4.97;1.17;;;2.70;18.60;;;;;;5004030;28;20683;-71
2023/11/28 09:12:48;;;;;;;2.00;0.82;;;2.70;15.30;;;;;;4995052;28;20208;-70
2023/11/28 09:15:15;;;;;;;2.83;0.90;;;2.60;16.00;;;;;;5012349;28;20712;-70
2023/11/28 09:17:42;;;;;;;1.70;0.90;;;2.60;16.80;;;;;;5007828;28;20187;-69
2023/11/28 09:20:08;;;;;;;2.40;0.88;;;2.60;16.80;;;;;;5007844;28;20185;-69
2023/11/28 09:22:34;;;;;;;2.28;0.93;;;2.50;16.30;;;;;;5008510;28;20190;-68
2023/11/28 09:25:00;;;;;;;7.43;1.02;;;2.50;17.70;;;;;;5007880;28;20213;-69
2023/11/28 09:27:25;;;;;;;1.73;0.80;;;2.50;17.20;;;;;;5008226;28;20203;-69
2023/11/28 09:29:51;;;;;;;1.63;0.80;;;2.60;18.60;;;;;;5007332;28;20205;-69
2023/11/28 09:32:16;;;;;;;1.73;0.87;;;2.70;18.70;;;;;;5008425;28;20198;-69
2023/11/28 09:34:45;;;;;;;2.07;1.10;;;2.70;18.70;;;;;;5007438;28;20230;-69
2023/11/28 09:37:11;;;;;;;1.75;0.90;;;2.70;18.70;;;;;;5008521;28;20190;-69
2023/11/28 09:39:38;;;;;;;2.08;0.80;;;2.60;16.10;;;;;;5008382;28;20182;-69
2023/11/28 09:42:08;;;;;;;2.22;1.08;;;2.70;17.50;;;;;;5008133;28;20188;-69
2023/11/28 09:44:35;;;;;;;1.50;0.60;;;2.70;16.10;;;;;;5028741;22;20234;-66
2023/11/28 09:47:10;;;;;;;1.85;0.77;;;2.60;16.90;;;;;;4998053;28;20710;-67
2023/11/28 09:49:45;;;;;;;3.25;1.00;;;2.60;16.60;;;;;;4999929;28;20181;-67
2023/11/28 09:52:13;;;;;;;1.60;0.80;;;2.60;16.10;;;;;;4997267;28;20266;-66
2023/11/28 09:54:39;;;;;;;1.60;0.65;;;2.60;16.10;;;;;;4998884;28;20201;-66
2023/11/28 09:57:09;;;;;;;1.53;0.67;;;2.60;17.40;;;;;;5003302;28;20214;-66
2023/11/28 09:59:40;;;;;;;2.03;0.90;;;2.60;18.00;;;;;;5002390;28;20521;-68
2023/11/28 10:02:05;;;;;;;2.22;0.95;;;2.60;18.50;;;;;;5000662;28;20180;-67
2023/11/28 10:04:32;;;;;;;1.70;0.70;;;2.60;17.90;;;;;;4999793;28;20211;-67
2023/11/28 10:07:01;;;;;;;1.60;0.70;;;2.60;16.60;;;;;;5001855;28;20178;-68
2023/11/28 10:09:29;;;;;;;1.70;0.60;;;2.50;16.80;;;;;;4999636;28;20213;-68
2023/11/28 10:11:58;;;;;;;1.55;0.55;;;2.70;18.10;;;;;;4999596;28;20212;-69
2023/11/28 10:14:24;;;;;;;1.80;0.80;;;2.70;16.90;;;;;;5000289;28;20242;-66
2023/11/28 10:16:51;;;;;;;1.70;0.60;;;2.80;16.90;;;;;;5000085;28;20186;-67
2023/11/28 10:19:17;;;;;;;1.63;0.63;;;2.80;14.60;;;;;;5000948;28;20265;-67
2023/11/28 10:21:44;;;;;;;1.60;0.73;;;2.60;13.90;;;;;;5000535;28;20180;-68
2023/11/28 10:24:10;;;;;;;2.00;0.93;;;2.60;15.50;;;;;;5000979;28;20175;-67
2023/11/28 10:26:39;;;;;;;1.65;0.60;;;2.60;13.10;;;;;;4998310;28;20230;-71
2023/11/28 10:29:06;;;;;;;1.60;0.75;;;2.60;15.50;;;;;;5001630;28;20202;-67
2023/11/28 10:31:39;;;;;;;1.50;0.50;;;2.60;15.10;;;;;;5000215;28;20187;-68
2023/11/28 10:34:09;;;;;;;1.75;0.60;;;2.60;13.90;;;;;;5001279;28;20295;-67
2023/11/28 10:36:41;;;;;;;1.60;0.60;;;2.60;13.50;;;;;;5000940;28;20258;-67
2023/11/28 10:39:08;;;;;;;1.70;0.70;;;2.60;13.20;;;;;;5003412;28;20186;-68
2023/11/28 10:41:34;;;;;;;1.73;0.80;;;2.60;14.40;;;;;;5003168;28;20186;-68
2023/11/28 10:43:59;;;;;;;2.00;0.97;;;2.60;14.70;;;;;;5003594;28;20667;-68
2023/11/28 10:46:27;;;;;;;1.50;0.60;;;2.70;14.40;;;;;;5003220;28;20486;-68
2023/11/28 10:48:53;;;;;;;2.33;1.48;;;2.70;13.50;;;;;;5004893;28;20197;-67
2023/11/28 10:51:20;;;;;;;1.60;0.70;;;2.70;13.10;;;;;;5005257;28;20191;-68
2023/11/28 10:53:48;;;;;;;1.70;0.95;;;2.60;13.20;;;;;;5005310;28;20471;-68
2023/11/28 10:56:17;;;;;;;3.10;1.02;;;2.60;12.70;;;;;;5002964;28;20197;-68
2023/11/28 10:58:49;;;;;;;1.73;0.80;;;2.70;14.40;;;;;;5003059;28;20202;-68
2023/11/28 11:01:17;;;;;;;1.90;0.85;;;2.70;13.10;;;;;;5004472;28;20583;-67
2023/11/28 11:03:45;;;;;;;1.88;1.08;;;2.80;14.50;;;;;;5001284;28;20226;-69
2023/11/28 11:06:11;;;;;;;2.40;1.20;;;2.70;14.80;;;;;;5000291;28;20628;-66
2023/11/28 11:08:38;;;;;;;3.50;1.20;;;2.60;16.30;;;;;;5006026;28;20218;-67
2023/11/28 11:11:04;;;;;;;2.63;1.23;;;2.70;17.80;;;;;;5005430;28;21017;-67
2023/11/28 11:13:56;;;;;;;1.90;1.05;;;2.70;15.70;;;;;;5004347;28;20413;-68
2023/11/28 11:16:41;;;;;;;2.30;0.80;;;2.70;13.30;;;;;;5004193;28;20195;-67
2023/11/28 11:19:09;;;;;;;1.85;0.77;;;2.70;13.10;;;;;;4983829;28;20188;-67
2023/11/28 11:21:48;;;;;;;2.13;1.05;;;2.70;13.30;;;;;;4982499;28;20181;-67
2023/11/28 11:24:19;;;;;;;1.92;1.08;;;2.70;13.30;;;;;;4984390;28;20642;-67
2023/11/28 11:26:46;;;;;;;1.77;1.25;;;2.60;12.70;;;;;;4981599;28;20188;-67
2023/11/28 11:29:24;;;;;;;1.90;1.08;;;2.50;13.20;;;;;;4985116;28;20187;-67
2023/11/28 11:31:57;;;;;;;2.80;1.17;;;2.50;11.90;;;;;;5006369;28;20601;-68
2023/11/28 11:34:43;;;;;;;2.22;1.25;;;2.40;11.40;;;;;;5006201;28;20225;-67
2023/11/28 11:37:14;;;;;;;2.55;1.20;;;2.50;12.90;;;;;;4990221;28;20557;-68
2023/11/28 11:39:42;;;;;;;1.98;1.30;;;2.40;12.80;;;;;;4992798;28;20602;-68
2023/11/28 11:42:16;;;;;;;2.00;1.20;;;2.50;11.30;;;;;;5006609;28;20185;-68
2023/11/28 11:44:46;;;;;;;2.10;1.50;;;2.60;12.00;;;;;;5006244;28;20197;-68
2023/11/28 11:47:23;;;;;;;2.03;1.48;;;2.60;11.90;;;;;;5006475;28;20169;-67
2023/11/28 11:49:51;;;;;;;2.33;1.30;;;2.60;12.80;;;;;;5006101;28;20250;-70
2023/11/28 11:52:19;;;;;;;2.28;1.42;;;2.50;13.60;;;;;;5008229;28;20193;-70
2023/11/28 11:54:46;;;;;;;2.88;1.35;;;2.50;14.10;;;;;;5008254;28;20224;-70
2023/11/28 11:57:13;;;;;;;2.10;1.20;;;2.50;15.80;;;;;;5005695;28;20207;-67
2023/11/28 11:59:41;;;;;;;3.80;1.40;;;2.50;13.20;;;;;;5003180;28;20201;-67
2023/11/28 12:02:08;;;;;;;2.65;1.75;;;2.50;13.40;;;;;;5004830;28;20179;-67
2023/11/28 12:04:43;;;;;;;2.00;1.15;;;2.40;12.70;;;;;;5000465;28;20663;-67
2023/11/28 12:07:12;;;;;;;2.33;1.20;;;2.30;12.80;;;;;;5000491;28;20186;-68
2023/11/28 12:09:39;;;;;;;1.98;1.00;;;2.40;14.00;;;;;;4998991;28;20252;-68
2023/11/28 12:12:06;;;;;;;2.35;1.50;;;2.50;12.10;;;;;;4995127;28;20532;-69
2023/11/28 12:14:39;;;;;;;1.95;1.30;;;2.50;12.30;;;;;;4993817;28;20214;-68
2023/11/28 12:17:04;;;;;;;3.38;2.03;;;2.40;11.60;;;;;;4995164;28;20174;-69
2023/11/28 12:19:31;;;;;;;2.40;1.70;;;2.30;12.70;;;;;;4994687;28;20243;-69
2023/11/28 12:21:59;;;;;;;2.40;1.70;;;2.20;13.50;;;;;;4995335;28;20167;-69
2023/11/28 12:24:25;;;;;;;2.70;1.95;;;2.30;13.80;;;;;;4995594;28;20174;-69
2023/11/28 12:26:50;;;;;;;2.60;1.90;;;2.30;14.20;;;;;;4996207;28;20204;-69
2023/11/28 12:29:16;;;;;;;2.17;1.80;;;2.30;14.20;;;;;;4996316;28;20237;-69
2023/11/28 12:31:43;;;;;;;3.07;1.90;;;2.30;12.50;;;;;;4995575;28;20201;-71
2023/11/28 12:34:09;;;;;;;3.13;2.20;;;2.30;14.20;;;;;;4995321;28;20226;-70
2023/11/28 12:36:35;;;;;;;4.47;3.17;;;2.30;14.70;;;;;;4993638;28;20199;-69
2023/11/28 12:39:01;;;;;;;5.10;2.23;;;2.40;13.40;;;;;;4995509;28;20413;-69
2023/11/28 12:41:35;;;;;;;3.38;2.58;;;2.40;10.60;;;;;;4994675;28;20178;-70
2023/11/28 12:44:00;;;;;;;5.28;3.10;;;2.30;11.00;;;;;;4994946;28;20178;-69
2023/11/28 12:46:31;;;;;;;4.22;2.65;;;2.30;10.80;;;;;;4993361;28;20223;-69
2023/11/28 12:48:56;;;;;;;4.93;3.05;;;2.20;12.30;;;;;;5003103;28;20180;-69
2023/11/28 12:51:22;;;;;;;3.37;2.70;;;2.30;11.90;;;;;;5000728;28;20215;-67
2023/11/28 12:53:47;;;;;;;4.77;2.43;;;2.40;12.10;;;;;;5003411;28;20218;-69
2023/11/28 12:56:13;;;;;;;4.80;3.07;;;2.50;12.50;;;;;;5004068;28;20206;-69